Terminal Aerodrome Forecast
Issued by NWS

Home | Current Version | Previous Version | Text Only | Print | Product List | Glossary On
Versions: 1 2 3 4 5 6 7 8 9 10 11 12
000
FTUS44 KJAN 260500 RRA
TAFHKS
TAF
KHKS 260542Z 2606/2706 18003KT P6SM SKC
     FM261400 21017G27KT P6SM SKC
     FM262300 25008KT P6SM SKC
     FM270300 31006KT P6SM SKC=

USA.gov is the U.S. government's official web portal to all federal, state and local government web resources and services.